^^
Station Historical Data
Daily Summary for September 29, 2017 Units:  Metric    English   Both
« Previous Day
Next Day »
Daily Weekly Monthly Yearly Custom
  High: Low: Average:
Temperature: 29.7 °C 11.4 °C 18.8 °C
Dew Point: 7.1 °C -5.4 °C 3.4 °C
Humidity: 71% 10% 43%
Wind Speed: 30.6km/h 0km/h 16.1km/h
Wind Gust: 35.4km/h - -
Wind- - SSW
Pressure: 1015.1 hPa 1011.7 hPa -
Precipitation: 0 mm    
Historical Graphs
 
 
Tabular Data for September 29, 2017
Time Temperature Dew Point Pressure Wind Wind Speed Wind Gust Humidity Rainfall Rate (Hourly) solar Conditions
01:32 15.8 °C 5.7 °C 1013.1 hPa SSW 11.1 km/h 17.7 km/h 51% 0 mm 0.0 W/m2
01:43 15.6 °C 5.8 °C 1013.4 hPa SSW 13 km/h 14.5 km/h 52% 0 mm 0.0 W/m2
01:48 15.5 °C 5.7 °C 1013.1 hPa SSW 13 km/h 14.5 km/h 52% 0 mm 0.0 W/m2
01:53 15.4 °C 5.6 °C 1013.4 hPa SSW 13 km/h 14.5 km/h 52% 0 mm 0.0 W/m2
01:58 15.3 °C 5.8 °C 1013.4 hPa SSW 9.7 km/h 14.5 km/h 53% 0 mm 0.0 W/m2
02:08 15.1 °C 5.6 °C 1013.1 hPa SSW 11.1 km/h 14.5 km/h 53% 0 mm 0.0 W/m2
02:13 15 °C 5.5 °C 1013.1 hPa SSW 13 km/h 14.5 km/h 53% 0 mm 0.0 W/m2
02:23 15.1 °C 5.9 °C 1013.1 hPa SSW 16.3 km/h 17.7 km/h 54% 0 mm 0.0 W/m2
02:33 15.1 °C 5.6 °C 1013.4 hPa SSW 9.7 km/h 12.9 km/h 53% 0 mm 0.0 W/m2
02:39 14.9 °C 5.7 °C 1013.4 hPa SSW 9.7 km/h 12.9 km/h 54% 0 mm 0.0 W/m2
02:44 14.7 °C 5.8 °C 1013.4 hPa SSW 13 km/h 14.5 km/h 55% 0 mm 0.0 W/m2
02:50 14.7 °C 5.8 °C 1013.4 hPa SSW 11.1 km/h 16.1 km/h 55% 0 mm 0.0 W/m2
02:59 14.5 °C 5.6 °C 1013.4 hPa SSW 9.7 km/h 9.7 km/h 55% 0 mm 0.0 W/m2
03:09 14.2 °C 5.5 °C 1013.4 hPa SSW 11.1 km/h 12.9 km/h 56% 0 mm 0.0 W/m2
03:14 14.2 °C 5.5 °C 1013.4 hPa SSW 11.1 km/h 14.5 km/h 56% 0 mm 0.0 W/m2
03:20 14.2 °C 5.8 °C 1013.4 hPa SSW 13 km/h 14.5 km/h 57% 0 mm 0.0 W/m2
03:30 14.1 °C 6 °C 1013.4 hPa SSW 13 km/h 16.1 km/h 58% 0 mm 0.0 W/m2
03:35 14 °C 5.9 °C 1013.1 hPa SSW 13 km/h 19.3 km/h 58% 0 mm 0.0 W/m2
03:44 13.9 °C 6 °C 1013.4 hPa SSW 16.3 km/h 19.3 km/h 59% 0 mm 0.0 W/m2
03:54 13.8 °C 5.9 °C 1013.1 hPa SSW 13 km/h 20.9 km/h 59% 0 mm 0.0 W/m2
03:59 13.8 °C 5.9 °C 1013.4 hPa SSW 17.7 km/h 22.5 km/h 59% 0 mm 0.0 W/m2
04:04 13.7 °C 6.1 °C 1013.4 hPa SSW 17.7 km/h 20.9 km/h 60% 0 mm 0.0 W/m2
04:09 13.6 °C 6 °C 1013.4 hPa SSW 14.3 km/h 19.3 km/h 60% 0 mm 0.0 W/m2
04:14 13.6 °C 6 °C 1013.4 hPa SSW 16.3 km/h 17.7 km/h 60% 0 mm 0.0 W/m2
04:20 13.4 °C 6 °C 1013.4 hPa SSW 13 km/h 17.7 km/h 61% 0 mm 0.0 W/m2
04:25 13.3 °C 5.9 °C 1013.4 hPa SSW 13 km/h 19.3 km/h 61% 0 mm 0.0 W/m2
04:35 13.2 °C 6.1 °C 1013.4 hPa SSW 19.5 km/h 19.5 km/h 62% 0 mm 0.0 W/m2
04:40 13.1 °C 6 °C 1013.4 hPa SSW 16.3 km/h 17.7 km/h 62% 0 mm 0.0 W/m2
04:45 13.1 °C 6.2 °C 1013.4 hPa SSW 13 km/h 17.7 km/h 63% 0 mm 0.0 W/m2
04:50 12.9 °C 6 °C 1013.4 hPa SSW 14.3 km/h 17.7 km/h 63% 0 mm 0.0 W/m2
04:55 12.8 °C 6.2 °C 1013.4 hPa SSW 17.7 km/h 17.7 km/h 64% 0 mm 0.0 W/m2
05:00 12.7 °C 6.1 °C 1013.4 hPa SSW 14.3 km/h 17.7 km/h 64% 0 mm 0.0 W/m2
05:05 12.7 °C 6.3 °C 1013.4 hPa SSW 16.3 km/h 17.7 km/h 65% 0 mm 0.0 W/m2
05:25 12.5 °C 6.3 °C 1013.4 hPa SSW 14.3 km/h 16.1 km/h 66% 0 mm 0.0 W/m2
05:30 12.4 °C 6.2 °C 1013.4 hPa SSW 11.1 km/h 16.1 km/h 66% 0 mm 0.0 W/m2
05:35 12.4 °C 6.4 °C 1013.8 hPa SSW 13 km/h 14.5 km/h 67% 0 mm 0.0 W/m2
05:40 12.3 °C 6.3 °C 1013.8 hPa SSW 7.9 km/h 12.9 km/h 67% 0 mm 0.0 W/m2
05:50 12.2 °C 6.5 °C 1014.1 hPa SSW 6.4 km/h 11.3 km/h 68% 0 mm 0.0 W/m2
05:55 12.1 °C 6.4 °C 1014.1 hPa SSW 3.2 km/h 8 km/h 68% 0 mm 0.0 W/m2
06:00 12 °C 6.3 °C 1014.1 hPa SSW 4.7 km/h 8 km/h 68% 0 mm 0.0 W/m2
06:05 11.8 °C 6.3 °C 1014.1 hPa Calm   6.4 km/h 69% 0 mm 0.0 W/m2
06:11 11.7 °C 6.2 °C 1014.1 hPa Calm     69% 0 mm 0.0 W/m2
06:16 11.6 °C 6.3 °C 1014.1 hPa Calm     70% 0 mm 0.0 W/m2
06:21 11.6 °C 6.3 °C 1014.1 hPa Calm     70% 0 mm 0.0 W/m2
06:31 11.4 °C 6.3 °C 1014.1 hPa Calm     71% 0 mm 5.0 W/m2
06:37 11.5 °C 6.4 °C 1014.1 hPa Calm     71% 0 mm 9.0 W/m2
06:42 11.6 °C 6.5 °C 1014.1 hPa Calm     71% 0 mm 12.0 W/m2
06:47 11.6 °C 6.5 °C 1014.4 hPa Calm     71% 0 mm 18.0 W/m2
06:52 11.7 °C 6.6 °C 1014.4 hPa SSW 13 km/h 14.5 km/h 71% 0 mm 25.0 W/m2
06:58 11.8 °C 6.7 °C 1014.4 hPa SSW 11.1 km/h 17.7 km/h 71% 0 mm 37.0 W/m2
07:02 11.9 °C 6.6 °C 1014.4 hPa SSW 9.7 km/h 17.7 km/h 70% 0 mm 49.0 W/m2
07:08 12.1 °C 6.8 °C 1014.4 hPa SSW 13 km/h 17.7 km/h 70% 0 mm 63.0 W/m2
07:13 12.2 °C 6.7 °C 1014.4 hPa SSW 11.1 km/h 17.7 km/h 69% 0 mm 79.0 W/m2
07:18 12.3 °C 6.8 °C 1014.4 hPa SSW 17.7 km/h 17.7 km/h 69% 0 mm 91.0 W/m2
07:23 12.5 °C 6.8 °C 1014.4 hPa SSW 11.1 km/h 19.3 km/h 68% 0 mm 111.0 W/m2
07:29 12.7 °C 6.9 °C 1014.4 hPa SSW 19.5 km/h 20.9 km/h 68% 0 mm 132.0 W/m2
07:34 12.9 °C 7.1 °C 1014.4 hPa SSW 22.7 km/h 24.1 km/h 68% 0 mm 153.0 W/m2
07:54 13.4 °C 7 °C 1014.8 hPa SW 20.9 km/h 24.1 km/h 65% 0 mm 216.0 W/m2
08:54 16.1 °C 6.2 °C 1014.8 hPa SW 16.3 km/h 22.5 km/h 52% 0 mm 427.0 W/m2
09:10 16.7 °C 5.9 °C 1014.8 hPa SW 16.3 km/h 20.9 km/h 49% 0 mm 476.0 W/m2
09:26 17.3 °C 5.9 °C 1015.1 hPa SW 16.3 km/h 20.9 km/h 47% 0 mm 524.0 W/m2
09:44 18.1 °C 5.7 °C 1015.1 hPa SW 19.5 km/h 22.5 km/h 44% 0 mm 585.0 W/m2
09:59 17.9 °C 5.8 °C 1015.1 hPa SW 25.9 km/h 27.4 km/h 45% 0 mm 628.0 W/m2
10:14 18.3 °C 5.5 °C 1015.1 hPa SW 24.1 km/h 27.4 km/h 43% 0 mm 670.0 W/m2
10:29 18.8 °C 6 °C 1015.1 hPa SW 19.5 km/h 20.9 km/h 43% 0 mm 705.0 W/m2
10:43 19.7 °C 5.4 °C 1015.1 hPa SW 19.5 km/h 22.5 km/h 39% 0 mm 738.0 W/m2
10:53 19.9 °C 4.8 °C 1015.1 hPa SW 16.3 km/h 24.1 km/h 37% 0 mm 761.0 W/m2
11:03 20.7 °C 4.7 °C 1014.8 hPa SW 19.5 km/h 24.1 km/h 35% 0 mm 780.0 W/m2
11:12 21.2 °C 4.3 °C 1014.8 hPa SW 17.7 km/h 30.6 km/h 33% 0 mm 798.0 W/m2
11:22 21.6 °C 4.2 °C 1014.8 hPa SW 25.9 km/h 30.6 km/h 32% 0 mm 817.0 W/m2
11:32 21.9 °C 4 °C 1014.8 hPa SW 25.9 km/h 32.2 km/h 31% 0 mm 831.0 W/m2
11:43 22.5 °C 4.1 °C 1014.8 hPa SW 27.4 km/h 30.6 km/h 30% 0 mm 844.0 W/m2
11:52 22.8 °C 3.3 °C 1014.8 hPa SW 22.7 km/h 29 km/h 28% 0 mm 854.0 W/m2
12:01 23.3 °C 3.2 °C 1014.8 hPa SW 30.6 km/h 32.2 km/h 27% 0 mm 861.0 W/m2
12:08 23.3 °C 3.2 °C 1014.4 hPa SW 24.1 km/h 33.8 km/h 27% 0 mm 867.0 W/m2
12:34 24.4 °C 2.5 °C 1014.1 hPa SW 27.4 km/h 30.6 km/h 24% 0 mm 874.0 W/m2
12:49 25.5 °C 2.2 °C 1013.8 hPa SW 17.7 km/h 29 km/h 22% 0 mm 874.0 W/m2
13:50 27.6 °C 1.1 °C 1012.8 hPa SW 20.9 km/h 35.4 km/h 18% 0 mm 833.0 W/m2
14:04 27.8 °C 1.3 °C 1012.8 hPa SW 16.3 km/h 29 km/h 18% 0 mm 812.0 W/m2
14:29 28.9 °C 0.6 °C 1012.4 hPa SW 22.7 km/h 25.7 km/h 16% 0 mm 768.0 W/m2
14:39 29.3 °C -3.1 °C 1012.4 hPa SSW 27.4 km/h 33.8 km/h 12% 0 mm 751.0 W/m2
14:48 29.3 °C -3.1 °C 1012.1 hPa SSW 24.1 km/h 24.1 km/h 12% 0 mm 728.0 W/m2
14:56 29.5 °C -4.1 °C 1012.1 hPa SSW 13 km/h 19.3 km/h 11% 0 mm 705.0 W/m2
15:06 29.6 °C -4 °C 1011.7 hPa SSW 20.9 km/h 24.1 km/h 11% 0 mm 682.0 W/m2
15:11 29.6 °C -4 °C 1012.1 hPa South 20.9 km/h 35.4 km/h 11% 0 mm 666.0 W/m2
15:20 29.5 °C -4.1 °C 1011.7 hPa SSE 25.9 km/h 29 km/h 11% 0 mm 640.0 W/m2
15:31 29.6 °C -4 °C 1011.7 hPa South 25.9 km/h 25.9 km/h 11% 0 mm 612.0 W/m2
15:39 29.6 °C -4 °C 1011.7 hPa South 16.3 km/h 20.9 km/h 11% 0 mm 596.0 W/m2
15:50 29.4 °C -4.1 °C 1011.7 hPa South 17.7 km/h 19.3 km/h 11% 0 mm 563.0 W/m2
16:03 29.7 °C -3.9 °C 1011.7 hPa SSW 19.5 km/h 29 km/h 11% 0 mm 520.0 W/m2
16:12 29.6 °C -4 °C 1011.7 hPa SSW 20.9 km/h 29 km/h 11% 0 mm 485.0 W/m2
16:23 29.4 °C -5.4 °C 1011.7 hPa SSW 17.7 km/h 27.4 km/h 10% 0 mm 454.0 W/m2
16:33 29.4 °C -4.1 °C 1012.1 hPa SSW 22.7 km/h 25.7 km/h 11% 0 mm 417.0 W/m2
16:45 29.3 °C -4.2 °C 1012.1 hPa South 25.9 km/h 25.9 km/h 11% 0 mm 387.0 W/m2
16:56 28.9 °C -3.4 °C 1012.1 hPa SSW 19.5 km/h 29 km/h 12% 0 mm 350.0 W/m2
17:07 28.6 °C -3.6 °C 1012.1 hPa South 25.9 km/h 32.2 km/h 12% 0 mm 297.0 W/m2
17:18 28.2 °C -3.9 °C 1012.4 hPa SSW 25.9 km/h 32.2 km/h 12% 0 mm 265.0 W/m2
17:34 27.9 °C -4.1 °C 1012.4 hPa South 19.5 km/h 27.4 km/h 12% 0 mm 214.0 W/m2
17:48 27.7 °C -4.3 °C 1012.4 hPa South 16.3 km/h 24.1 km/h 12% 0 mm 176.0 W/m2
18:19 26.6 °C -4.1 °C 1012.8 hPa SSW 27.4 km/h 29 km/h 13% 0 mm 47.0 W/m2
18:27 26.3 °C -4.3 °C 1013.1 hPa SSW 14.3 km/h 24.1 km/h 13% 0 mm 23.0 W/m2
18:33 26.1 °C -4.5 °C 1013.1 hPa SSW 20.9 km/h 25.7 km/h 13% 0 mm 16.0 W/m2
18:46 25.8 °C -4.7 °C 1013.1 hPa SSW 20.9 km/h 22.5 km/h 13% 0 mm 9.0 W/m2
19:17 24.8 °C -4.5 °C 1013.4 hPa SSW 20.9 km/h 24.1 km/h 14% 0 mm 0.0 W/m2
19:33 24.4 °C -3.9 °C 1013.4 hPa SSW 16.3 km/h 24.1 km/h 15% 0 mm 0.0 W/m2
20:02 23.6 °C -2.1 °C 1013.8 hPa SSW 16.3 km/h 20.9 km/h 18% 0 mm 0.0 W/m2
20:33 22.7 °C 1.7 °C 1013.8 hPa SW 20.9 km/h 25.7 km/h 25% 0 mm 0.0 W/m2
20:47 22.4 °C 2 °C 1013.8 hPa SW 25.9 km/h 25.9 km/h 26% 0 mm 0.0 W/m2
21:02 22.2 °C 1.8 °C 1013.8 hPa WSW 22.7 km/h 25.7 km/h 26% 0 mm 0.0 W/m2
21:46 21.3 °C 3 °C 1013.8 hPa WSW 22.7 km/h 24.1 km/h 30% 0 mm 0.0 W/m2
21:55 21 °C 3.2 °C 1014.1 hPa SW 19.5 km/h 22.5 km/h 31% 0 mm 0.0 W/m2
22:05 20.7 °C 3.4 °C 1014.1 hPa SW 17.7 km/h 24.1 km/h 32% 0 mm 0.0 W/m2
22:14 20.3 °C 3.5 °C 1014.1 hPa SW 16.3 km/h 20.9 km/h 33% 0 mm 0.0 W/m2
22:20 20.2 °C 3.4 °C 1014.1 hPa SW 17.7 km/h 20.9 km/h 33% 0 mm 0.0 W/m2
22:33 19.9 °C 4 °C 1014.1 hPa SW 17.7 km/h 22.5 km/h 35% 0 mm 0.0 W/m2
22:38 19.8 °C 3.9 °C 1014.1 hPa SW 17.7 km/h 22.5 km/h 35% 0 mm 0.0 W/m2
22:43 19.7 °C 4.2 °C 1014.1 hPa SW 16.3 km/h 20.9 km/h 36% 0 mm 0.0 W/m2
22:48 19.6 °C 4.1 °C 1014.1 hPa SW 20.9 km/h 20.9 km/h 36% 0 mm 0.0 W/m2
22:53 19.6 °C 4.1 °C 1014.1 hPa SW 20.9 km/h 22.5 km/h 36% 0 mm 0.0 W/m2
23:03 19.3 °C 4.6 °C 1014.1 hPa SW 17.7 km/h 20.9 km/h 38% 0 mm 0.0 W/m2
23:08 19.2 °C 4.9 °C 1014.1 hPa SW 19.5 km/h 19.5 km/h 39% 0 mm 0.0 W/m2
23:13 19 °C 4.7 °C 1014.1 hPa SW 14.3 km/h 17.7 km/h 39% 0 mm 0.0 W/m2
23:18 18.8 °C 4.9 °C 1014.1 hPa SW 11.1 km/h 16.1 km/h 40% 0 mm 0.0 W/m2
23:28 18.5 °C 5 °C 1014.1 hPa SW 11.1 km/h 14.5 km/h 41% 0 mm 0.0 W/m2
23:33 18.4 °C 4.9 °C 1014.1 hPa SW 13 km/h 17.7 km/h 41% 0 mm 0.0 W/m2
23:38 18.3 °C 5.2 °C 1014.4 hPa SW 11.1 km/h 16.1 km/h 42% 0 mm 0.0 W/m2
23:43 18.1 °C 5 °C 1014.1 hPa SW 13 km/h 17.7 km/h 42% 0 mm 0.0 W/m2
23:53 17.9 °C 5.1 °C 1014.4 hPa SW 14.3 km/h 17.7 km/h 43% 0 mm 0.0 W/m2
23:58 17.8 °C 5.1 °C 1014.4 hPa SW 13 km/h 16.1 km/h 43% 0 mm 0.0 W/m2
Canyon Roadhouse, Fishriver Canyon, Namibia
Compliments of Weather Underground - 2.25 mb